createdAt,value
2022-10-05T00:01:27.001Z,11.77
2022-10-05T00:04:00.385Z,11.71
2022-10-05T00:06:32.550Z,11.91
2022-10-05T00:09:02.169Z,11.80
2022-10-05T00:11:31.059Z,11.81
2022-10-05T00:14:00.655Z,11.91
2022-10-05T00:16:33.262Z,11.64
2022-10-05T00:19:01.368Z,11.66
2022-10-05T00:21:30.408Z,11.57
2022-10-05T00:24:02.364Z,11.63
2022-10-05T00:26:34.233Z,11.71
2022-10-05T00:29:09.879Z,11.56
2022-10-05T00:31:39.346Z,11.52
2022-10-05T00:34:10.170Z,11.54
2022-10-05T00:36:39.330Z,11.58
2022-10-05T00:39:11.477Z,11.69
2022-10-05T00:41:56.940Z,11.55
2022-10-05T00:44:38.170Z,11.51
2022-10-05T00:47:16.178Z,11.92
2022-10-05T00:50:03.975Z,11.80
2022-10-05T00:52:38.192Z,11.69
2022-10-05T00:55:12.365Z,11.64
2022-10-05T00:57:50.160Z,11.65
2022-10-05T01:00:21.725Z,11.71
2022-10-05T01:02:59.784Z,11.72
2022-10-05T01:05:42.833Z,11.73
2022-10-05T01:08:17.522Z,11.60
2022-10-05T01:10:48.353Z,11.73
2022-10-05T01:13:24.384Z,11.71
2022-10-05T01:15:58.415Z,11.60
2022-10-05T01:18:39.223Z,11.47
2022-10-05T01:21:14.882Z,11.50
2022-10-05T01:24:34.613Z,11.57
2022-10-05T01:27:32.349Z,11.55
2022-10-05T01:30:05.871Z,11.55
2022-10-05T01:32:38.047Z,11.65
2022-10-05T01:35:15.422Z,11.41
2022-10-05T01:37:54.797Z,11.59
2022-10-05T01:40:32.366Z,11.51
2022-10-05T01:43:08.573Z,11.45
2022-10-05T01:45:45.207Z,11.53
2022-10-05T01:48:22.125Z,11.60
2022-10-05T01:50:57.612Z,11.58
2022-10-05T01:53:34.084Z,11.53
2022-10-05T01:56:09.171Z,11.33
2022-10-05T01:58:46.000Z,11.24
2022-10-05T02:01:19.543Z,11.45
2022-10-05T02:03:51.356Z,11.30
2022-10-05T02:06:25.662Z,11.26
2022-10-05T02:09:00.399Z,11.53
2022-10-05T02:11:30.576Z,11.33
2022-10-05T02:14:04.074Z,11.30
2022-10-05T02:16:37.575Z,11.30
2022-10-05T02:19:14.732Z,11.16
2022-10-05T02:21:47.538Z,11.24
2022-10-05T02:24:22.635Z,11.00
2022-10-05T02:26:52.968Z,11.11
2022-10-05T02:29:27.758Z,10.90
2022-10-05T02:32:03.394Z,10.90
2022-10-05T02:34:38.139Z,11.11
2022-10-05T02:37:25.552Z,11.01
2022-10-05T02:40:09.171Z,11.11
2022-10-05T02:42:48.589Z,10.87
2022-10-05T02:45:28.338Z,10.95
2022-10-05T02:48:05.357Z,11.09
2022-10-05T02:50:38.751Z,11.06
2022-10-05T02:53:17.386Z,11.06
2022-10-05T02:55:52.450Z,10.95
2022-10-05T02:58:25.542Z,10.91
2022-10-05T03:01:01.562Z,10.93
2022-10-05T03:03:36.446Z,10.85
2022-10-05T03:06:07.468Z,10.93
2022-10-05T03:08:38.742Z,10.79
2022-10-05T03:11:15.756Z,10.90
2022-10-05T03:13:48.695Z,10.96
2022-10-05T03:16:37.406Z,10.85
2022-10-05T03:19:15.158Z,10.87
2022-10-05T03:21:54.430Z,10.77
2022-10-05T03:24:39.503Z,10.78
2022-10-05T03:27:16.368Z,10.82
2022-10-05T03:29:48.792Z,10.71
2022-10-05T03:32:22.744Z,10.82
2022-10-05T03:34:56.890Z,10.80
2022-10-05T03:37:29.400Z,10.87
2022-10-05T03:40:01.575Z,10.56
2022-10-05T03:42:36.303Z,10.69
2022-10-05T03:45:10.743Z,10.66
2022-10-05T03:47:52.421Z,10.65
2022-10-05T03:50:30.715Z,10.51
2022-10-05T03:53:02.553Z,10.69
2022-10-05T03:55:39.484Z,10.64
2022-10-05T03:58:15.001Z,10.50
2022-10-05T04:00:46.796Z,10.54
2022-10-05T04:03:22.729Z,10.56
2022-10-05T04:05:55.416Z,10.53
2022-10-05T04:08:29.696Z,10.57
2022-10-05T04:10:59.281Z,10.61
2022-10-05T04:13:33.058Z,10.31
2022-10-05T04:16:06.867Z,10.48
2022-10-05T04:18:40.833Z,10.59
2022-10-05T04:21:12.579Z,10.66
2022-10-05T04:23:46.614Z,10.62
2022-10-05T04:26:19.092Z,10.46
2022-10-05T04:28:57.606Z,10.51
2022-10-05T04:31:46.022Z,10.68
2022-10-05T04:34:30.625Z,10.46
2022-10-05T04:37:03.840Z,10.32
2022-10-05T04:39:38.739Z,10.51
2022-10-05T04:42:12.780Z,10.49
2022-10-05T04:45:02.521Z,10.40
2022-10-05T04:47:49.871Z,10.47
2022-10-05T04:50:34.795Z,10.44
2022-10-05T04:53:17.754Z,10.50
2022-10-05T04:55:56.486Z,10.40
2022-10-05T04:58:48.883Z,10.40
2022-10-05T05:01:31.342Z,10.45
2022-10-05T05:04:16.330Z,10.44
2022-10-05T05:06:52.526Z,10.38
2022-10-05T05:09:38.509Z,10.37
2022-10-05T05:12:18.710Z,10.23
2022-10-05T05:15:20.089Z,10.33
2022-10-05T05:18:17.227Z,10.43
2022-10-05T05:20:55.145Z,10.39
2022-10-05T05:23:28.955Z,10.29
2022-10-05T05:26:03.980Z,10.54
2022-10-05T05:28:39.976Z,10.59
2022-10-05T05:31:13.807Z,10.29
2022-10-05T05:33:50.994Z,10.48
2022-10-05T05:36:27.601Z,10.54
2022-10-05T05:39:15.310Z,10.45
2022-10-05T05:41:53.332Z,10.38
2022-10-05T05:44:25.548Z,10.66
2022-10-05T05:47:05.059Z,10.56
2022-10-05T05:49:53.028Z,10.50
2022-10-05T05:52:26.923Z,10.24
2022-10-05T05:55:00.658Z,10.31
2022-10-05T05:57:35.307Z,10.45
2022-10-05T06:00:07.644Z,10.63
2022-10-05T06:02:45.683Z,10.61
2022-10-05T06:05:27.451Z,10.57
2022-10-05T06:07:58.780Z,10.46
2022-10-05T06:10:34.073Z,10.54
2022-10-05T06:13:08.674Z,10.51
2022-10-05T06:15:42.026Z,10.44
2022-10-05T06:18:12.147Z,10.43
2022-10-05T06:20:51.756Z,10.35
2022-10-05T06:23:27.618Z,10.65
2022-10-05T06:26:10.983Z,10.52
2022-10-05T06:28:41.156Z,10.72
2022-10-05T06:31:19.760Z,10.75
2022-10-05T06:33:55.926Z,10.75
2022-10-05T06:36:50.644Z,10.69
2022-10-05T06:40:00.882Z,10.91
2022-10-05T06:42:57.864Z,11.09
2022-10-05T06:46:01.525Z,11.03
2022-10-05T06:49:17.191Z,10.76
2022-10-05T06:52:10.852Z,10.85
2022-10-05T06:54:55.702Z,11.24
2022-10-05T06:58:00.111Z,11.19
2022-10-05T07:00:32.175Z,11.31
2022-10-05T07:03:06.424Z,11.38
2022-10-05T07:05:56.347Z,11.26
2022-10-05T07:08:32.717Z,11.53
2022-10-05T07:11:09.357Z,11.50
2022-10-05T07:14:03.716Z,11.70
2022-10-05T07:16:41.656Z,11.73
2022-10-05T07:19:38.729Z,11.79
2022-10-05T07:22:47.921Z,11.85
2022-10-05T07:25:25.034Z,11.63
2022-10-05T07:27:59.048Z,11.69
2022-10-05T07:30:29.759Z,11.79
2022-10-05T07:33:02.562Z,11.92
2022-10-05T07:35:59.805Z,12.02
2022-10-05T07:38:33.209Z,12.21
2022-10-05T07:41:07.567Z,12.29
2022-10-05T07:44:01.584Z,12.20
2022-10-05T07:46:50.582Z,12.35
2022-10-05T07:49:26.965Z,12.40
2022-10-05T07:52:00.030Z,12.53
2022-10-05T07:54:37.993Z,12.58
2022-10-05T07:57:13.542Z,12.74
2022-10-05T07:59:45.979Z,12.78
2022-10-05T08:02:27.207Z,12.78
2022-10-05T08:05:00.334Z,12.84
2022-10-05T08:07:29.695Z,13.00
2022-10-05T08:10:07.706Z,13.05
2022-10-05T08:12:42.884Z,13.05
2022-10-05T08:15:15.955Z,13.26
2022-10-05T08:17:50.699Z,13.50
2022-10-05T08:20:46.628Z,13.50
2022-10-05T08:23:25.521Z,13.64
2022-10-05T08:26:08.588Z,13.68
2022-10-05T08:28:41.675Z,14.08
2022-10-05T08:31:16.349Z,13.93
2022-10-05T08:33:55.728Z,13.98
2022-10-05T08:36:33.328Z,13.96
2022-10-05T08:39:04.175Z,14.20
2022-10-05T08:41:48.777Z,14.39
2022-10-05T08:45:05.949Z,14.42
2022-10-05T08:48:19.092Z,14.57
2022-10-05T08:51:12.910Z,14.39
2022-10-05T08:54:01.899Z,14.58
2022-10-05T08:56:38.323Z,14.84
2022-10-05T08:59:45.456Z,15.04
2022-10-05T09:02:25.942Z,15.17
2022-10-05T09:05:14.268Z,15.25
2022-10-05T09:08:17.638Z,14.98
2022-10-05T09:11:11.401Z,15.27
2022-10-05T09:14:29.089Z,15.32
2022-10-05T09:17:23.029Z,15.38
2022-10-05T09:20:10.797Z,15.46
2022-10-05T09:23:00.132Z,15.65
2022-10-05T09:25:54.878Z,15.79
2022-10-05T09:28:32.947Z,15.88
2022-10-05T09:31:31.615Z,16.11
2022-10-05T09:34:33.085Z,16.07
2022-10-05T09:37:46.594Z,15.95
2022-10-05T09:40:52.252Z,16.14
2022-10-05T09:43:47.738Z,16.17
2022-10-05T09:46:42.171Z,16.34
2022-10-05T09:49:44.318Z,16.40
2022-10-05T09:52:36.350Z,16.45
2022-10-05T09:55:23.532Z,16.42
2022-10-05T09:58:23.306Z,16.50
2022-10-05T10:01:33.302Z,16.69
2022-10-05T10:04:33.105Z,16.84
2022-10-05T10:07:37.832Z,16.77
2022-10-05T10:10:23.616Z,17.06
2022-10-05T10:13:03.116Z,17.04
2022-10-05T10:16:10.427Z,17.04
2022-10-05T10:19:22.011Z,17.02
2022-10-05T10:22:15.768Z,16.94
2022-10-05T10:24:56.641Z,16.88
2022-10-05T10:27:37.848Z,16.84
2022-10-05T10:30:27.601Z,16.87
2022-10-05T10:33:50.221Z,16.80
2022-10-05T10:36:21.883Z,16.87
2022-10-05T10:39:03.494Z,16.95
2022-10-05T10:41:57.321Z,17.24
2022-10-05T10:44:53.127Z,17.55
2022-10-05T10:47:48.013Z,17.72
2022-10-05T10:50:33.313Z,17.65
2022-10-05T10:53:10.672Z,17.93
2022-10-05T10:55:43.660Z,17.99
2022-10-05T10:58:45.012Z,17.94
2022-10-05T11:01:31.637Z,18.03
2022-10-05T11:04:31.321Z,18.12
2022-10-05T11:07:29.973Z,18.26
2022-10-05T11:10:16.358Z,18.37
2022-10-05T11:13:13.687Z,18.45
2022-10-05T11:16:10.416Z,18.52
2022-10-05T11:18:49.682Z,18.64
2022-10-05T11:21:38.418Z,18.57
2022-10-05T11:24:40.534Z,18.65
2022-10-05T11:27:40.482Z,18.56
2022-10-05T11:30:48.896Z,18.67
2022-10-05T11:33:52.377Z,18.75
2022-10-05T11:36:53.487Z,18.82
2022-10-05T11:39:38.908Z,18.84
2022-10-05T11:42:39.013Z,18.89
2022-10-05T11:45:21.817Z,18.93
2022-10-05T11:48:10.858Z,18.99
2022-10-05T11:50:53.329Z,18.99
2022-10-05T11:53:26.452Z,19.07
2022-10-05T11:56:04.231Z,19.23
2022-10-05T11:58:35.402Z,19.31
2022-10-05T12:01:08.200Z,19.35
2022-10-05T12:03:57.430Z,19.29
2022-10-05T12:07:01.232Z,19.25
2022-10-05T12:10:04.887Z,19.50
2022-10-05T12:12:38.426Z,19.73
2022-10-05T12:15:17.546Z,19.66
2022-10-05T12:17:51.500Z,19.89
2022-10-05T12:20:22.448Z,20.06
2022-10-05T12:22:58.103Z,19.87
2022-10-05T12:25:30.425Z,19.66
2022-10-05T12:28:04.133Z,19.54
2022-10-05T12:30:48.920Z,19.43
2022-10-05T12:33:21.472Z,19.29
2022-10-05T12:35:53.617Z,19.29
2022-10-05T12:38:28.554Z,19.09
2022-10-05T12:41:05.543Z,19.22
2022-10-05T12:43:39.844Z,19.27
2022-10-05T12:46:10.786Z,19.32
2022-10-05T12:48:57.962Z,19.29
2022-10-05T12:51:35.601Z,19.35
2022-10-05T12:54:13.488Z,19.37
2022-10-05T12:56:45.698Z,19.41
2022-10-05T12:59:22.361Z,19.45
2022-10-05T13:01:56.413Z,19.46
2022-10-05T13:04:33.341Z,19.49
2022-10-05T13:07:14.480Z,19.49
2022-10-05T13:09:53.523Z,19.52
2022-10-05T13:12:29.855Z,19.57
2022-10-05T13:15:03.922Z,19.56
2022-10-05T13:17:38.883Z,19.64
2022-10-05T13:20:14.040Z,19.66
2022-10-05T13:22:44.695Z,19.62
2022-10-05T13:25:27.478Z,19.62
2022-10-05T13:28:15.499Z,19.66
2022-10-05T13:30:53.076Z,19.73
2022-10-05T13:33:26.574Z,19.74
2022-10-05T13:35:59.061Z,19.76
2022-10-05T13:38:38.372Z,19.75
2022-10-05T13:41:17.886Z,19.72
2022-10-05T13:43:56.079Z,19.69
2022-10-05T13:46:30.090Z,19.63
2022-10-05T13:49:06.025Z,19.68
2022-10-05T13:51:42.440Z,19.65
2022-10-05T13:54:16.392Z,19.67
2022-10-05T13:56:48.813Z,19.59
2022-10-05T13:59:21.934Z,19.54
2022-10-05T14:01:54.139Z,19.55
2022-10-05T14:04:25.682Z,19.51
2022-10-05T14:06:54.180Z,19.50
2022-10-05T14:09:32.530Z,19.49
2022-10-05T14:12:22.422Z,19.39
2022-10-05T14:14:55.289Z,19.40
2022-10-05T14:17:42.240Z,19.41
2022-10-05T14:20:35.274Z,19.36
2022-10-05T14:23:08.111Z,19.45
2022-10-05T14:25:50.532Z,19.48
2022-10-05T14:28:29.598Z,19.47
2022-10-05T14:30:59.969Z,19.40
2022-10-05T14:33:29.793Z,19.39
2022-10-05T14:36:02.620Z,19.33
2022-10-05T14:38:36.408Z,19.29
2022-10-05T14:41:14.141Z,19.21
2022-10-05T14:43:53.004Z,19.21
2022-10-05T14:46:28.599Z,19.21
2022-10-05T14:49:26.866Z,19.08
2022-10-05T14:51:56.261Z,19.12
2022-10-05T14:54:47.642Z,18.97
2022-10-05T14:57:25.714Z,19.05
2022-10-05T15:00:09.157Z,18.96
2022-10-05T15:03:01.161Z,18.89
2022-10-05T15:05:36.813Z,18.87
2022-10-05T15:08:15.945Z,18.82
2022-10-05T15:10:50.931Z,18.79
2022-10-05T15:13:22.597Z,18.73
2022-10-05T15:15:54.771Z,18.76
2022-10-05T15:18:36.905Z,18.72
2022-10-05T15:21:27.697Z,18.63
2022-10-05T15:23:58.762Z,18.62
2022-10-05T15:26:36.660Z,18.61
2022-10-05T15:29:14.467Z,18.54
2022-10-05T15:31:50.720Z,18.53
2022-10-05T15:34:25.362Z,18.47
2022-10-05T15:36:57.334Z,18.41
2022-10-05T15:39:29.694Z,18.36
2022-10-05T15:42:01.011Z,18.34
2022-10-05T15:44:40.367Z,18.27
2022-10-05T15:47:14.056Z,18.25
2022-10-05T15:49:50.340Z,18.24
2022-10-05T15:52:24.593Z,18.18
2022-10-05T15:55:26.641Z,18.08
2022-10-05T15:58:02.772Z,18.09
2022-10-05T16:00:52.358Z,17.98
2022-10-05T16:03:27.450Z,18.00
2022-10-05T16:06:15.841Z,17.97
2022-10-05T16:09:01.867Z,17.90
2022-10-05T16:11:50.879Z,17.86
2022-10-05T16:14:28.404Z,17.82
2022-10-05T16:17:09.459Z,17.78
2022-10-05T16:19:46.855Z,17.78
2022-10-05T16:22:23.960Z,17.75
2022-10-05T16:25:07.053Z,17.69
2022-10-05T16:27:49.317Z,17.73
2022-10-05T16:30:21.461Z,17.64
2022-10-05T16:32:57.474Z,17.56
2022-10-05T16:35:33.288Z,17.55
2022-10-05T16:38:13.877Z,17.53
2022-10-05T16:40:45.968Z,17.46
2022-10-05T16:43:25.773Z,17.43
2022-10-05T16:46:02.433Z,17.43
2022-10-05T16:48:35.592Z,17.43
2022-10-05T16:51:21.654Z,17.34
2022-10-05T16:53:59.789Z,17.35
2022-10-05T16:56:31.886Z,17.34
2022-10-05T16:59:14.370Z,17.27
2022-10-05T17:01:52.470Z,17.29
2022-10-05T17:04:31.942Z,17.21
2022-10-05T17:07:16.874Z,17.19
2022-10-05T17:09:59.744Z,17.18
2022-10-05T17:12:45.635Z,17.13
2022-10-05T17:15:37.568Z,17.10
2022-10-05T17:18:46.258Z,17.05
2022-10-05T17:21:16.951Z,17.08
2022-10-05T17:23:55.602Z,17.01
2022-10-05T17:26:38.629Z,17.05
2022-10-05T17:29:17.135Z,16.94
2022-10-05T17:32:13.452Z,16.91
2022-10-05T17:35:18.243Z,16.81
2022-10-05T17:38:14.253Z,16.78
2022-10-05T17:41:05.569Z,16.79
2022-10-05T17:43:40.333Z,16.80
2022-10-05T17:46:12.513Z,16.76
2022-10-05T17:49:11.956Z,16.69
2022-10-05T17:52:21.639Z,16.70
2022-10-05T17:55:15.410Z,16.69
2022-10-05T17:57:46.718Z,16.64
2022-10-05T18:00:40.369Z,16.60
2022-10-05T18:03:35.842Z,16.57
2022-10-05T18:06:38.419Z,16.66
2022-10-05T18:09:22.106Z,16.60
2022-10-05T18:12:10.169Z,16.54
2022-10-05T18:15:00.435Z,16.54
2022-10-05T18:17:44.517Z,16.54
2022-10-05T18:20:30.207Z,16.49
2022-10-05T18:23:36.231Z,16.47
2022-10-05T18:26:16.010Z,16.49
2022-10-05T18:28:54.169Z,16.49
2022-10-05T18:31:32.406Z,16.49
2022-10-05T18:34:13.415Z,16.42
2022-10-05T18:37:02.558Z,16.44
2022-10-05T18:39:42.988Z,16.40
2022-10-05T18:42:22.762Z,16.41
2022-10-05T18:44:55.325Z,16.38
2022-10-05T18:47:32.003Z,16.37
2022-10-05T18:50:10.224Z,16.28
2022-10-05T18:52:50.086Z,16.28
2022-10-05T18:55:23.692Z,16.28
2022-10-05T18:58:19.605Z,16.23
2022-10-05T19:01:29.690Z,16.15
2022-10-05T19:04:15.861Z,16.16
2022-10-05T19:06:56.103Z,16.15
2022-10-05T19:09:51.036Z,16.08
2022-10-05T19:12:26.231Z,16.10
2022-10-05T19:15:06.525Z,16.16
2022-10-05T19:18:00.605Z,16.10
2022-10-05T19:20:36.061Z,16.04
2022-10-05T19:23:46.146Z,16.02
2022-10-05T19:26:17.285Z,15.99
2022-10-05T19:29:00.227Z,16.01
2022-10-05T19:31:34.398Z,16.01
2022-10-05T19:34:32.838Z,15.98
2022-10-05T19:37:13.423Z,15.92
2022-10-05T19:39:48.124Z,15.94
2022-10-05T19:42:50.961Z,15.85
2022-10-05T19:45:23.921Z,15.92
2022-10-05T19:48:04.246Z,15.92
2022-10-05T19:50:34.485Z,15.88
2022-10-05T19:53:13.520Z,15.83
2022-10-05T19:55:44.499Z,15.89
2022-10-05T19:58:26.480Z,15.88
2022-10-05T20:01:00.043Z,15.82
2022-10-05T20:03:30.433Z,15.86
2022-10-05T20:06:05.108Z,15.82
2022-10-05T20:08:49.393Z,15.82
2022-10-05T20:11:25.881Z,15.81
2022-10-05T20:14:18.977Z,15.73
2022-10-05T20:17:04.750Z,15.69
2022-10-05T20:19:55.938Z,15.63
2022-10-05T20:22:34.324Z,15.65
2022-10-05T20:25:06.360Z,15.65
2022-10-05T20:27:47.491Z,15.59
2022-10-05T20:30:18.397Z,15.60
2022-10-05T20:32:57.701Z,15.62
2022-10-05T20:35:29.596Z,15.57
2022-10-05T20:38:00.511Z,15.57
2022-10-05T20:40:32.104Z,15.59
2022-10-05T20:43:02.757Z,15.58
2022-10-05T20:45:32.364Z,15.59
2022-10-05T20:48:02.726Z,15.53
2022-10-05T20:50:36.896Z,15.55
2022-10-05T20:53:11.773Z,15.39
2022-10-05T20:55:43.962Z,15.47
2022-10-05T20:58:12.679Z,15.50
2022-10-05T21:00:59.815Z,15.35
2022-10-05T21:03:28.499Z,15.45
2022-10-05T21:05:59.975Z,15.45
2022-10-05T21:08:30.901Z,15.42
2022-10-05T21:11:09.029Z,15.44
2022-10-05T21:13:42.642Z,15.40
2022-10-05T21:16:28.201Z,15.35
2022-10-05T21:18:58.943Z,15.33
2022-10-05T21:21:28.641Z,15.29
2022-10-05T21:24:00.542Z,15.26
2022-10-05T21:26:33.718Z,15.34
2022-10-05T21:29:02.753Z,15.27
2022-10-05T21:31:31.840Z,15.30
2022-10-05T21:34:02.729Z,15.18
2022-10-05T21:36:35.014Z,15.23
2022-10-05T21:39:03.503Z,15.12
2022-10-05T21:41:34.128Z,15.32
2022-10-05T21:44:04.282Z,15.18
2022-10-05T21:46:37.977Z,15.11
2022-10-05T21:49:07.281Z,15.16
2022-10-05T21:51:35.585Z,15.12
2022-10-05T21:54:09.027Z,15.16
2022-10-05T21:56:40.700Z,15.21
2022-10-05T21:59:11.538Z,15.03
2022-10-05T22:01:43.309Z,15.09
2022-10-05T22:04:15.172Z,14.94
2022-10-05T22:06:43.707Z,14.96
2022-10-05T22:09:15.598Z,15.02
2022-10-05T22:11:49.265Z,14.97
2022-10-05T22:14:17.421Z,14.98
2022-10-05T22:16:56.152Z,14.87
2022-10-05T22:19:24.242Z,14.88
2022-10-05T22:21:52.775Z,14.80
2022-10-05T22:24:22.033Z,14.84
2022-10-05T22:26:53.134Z,14.91
2022-10-05T22:29:22.583Z,14.85
2022-10-05T22:31:53.249Z,14.70
2022-10-05T22:34:22.393Z,14.80
2022-10-05T22:36:50.838Z,14.70
2022-10-05T22:39:20.562Z,14.65
2022-10-05T22:41:51.013Z,14.58
2022-10-05T22:44:19.103Z,14.58
2022-10-05T22:46:49.622Z,14.58
2022-10-05T22:49:22.033Z,14.59
2022-10-05T22:51:51.081Z,14.54
2022-10-05T22:54:24.371Z,14.52
2022-10-05T22:56:57.959Z,14.32
2022-10-05T22:59:27.318Z,14.39
2022-10-05T23:01:55.753Z,14.40
2022-10-05T23:04:23.850Z,14.47
2022-10-05T23:06:51.947Z,14.37
2022-10-05T23:09:20.621Z,14.48
2022-10-05T23:11:52.172Z,14.41
2022-10-05T23:14:23.814Z,14.38
2022-10-05T23:16:52.142Z,14.36
2022-10-05T23:19:20.621Z,14.32
2022-10-05T23:21:50.511Z,14.33
2022-10-05T23:24:18.523Z,14.34
2022-10-05T23:26:47.890Z,14.22
2022-10-05T23:29:15.912Z,14.30
2022-10-05T23:31:46.476Z,14.39
2022-10-05T23:34:14.607Z,14.22
2022-10-05T23:36:45.178Z,14.20
2022-10-05T23:39:13.835Z,14.30
2022-10-05T23:41:43.962Z,14.18
2022-10-05T23:44:15.226Z,14.07
2022-10-05T23:46:52.821Z,13.98
2022-10-05T23:49:22.031Z,14.11
2022-10-05T23:51:52.040Z,14.21
2022-10-05T23:54:22.988Z,14.05
2022-10-05T23:56:53.211Z,14.18
2022-10-05T23:59:25.699Z,14.11
